Time;durP1;ratioP1;P1;durP2;ratioP2;P2;SDS_P1;SDS_P2;PMS_P1;PMS_P2;Temp;Humidity;BMP_temperature;BMP_pressure;BME280_temperature;BME280_humidity;BME280_pressure;Samples;Min_cycle;Max_cycle;Signal;HPM_P1;HPM_P2
2023/05/13 00:03:41;;;;;;;20.15;16.25;;;;;;;14.08;100.00;100885.84;8321984;28;20049;-58
2023/05/13 00:07:41;;;;;;;20.52;15.77;;;;;;;14.20;100.00;100874.59;8322446;28;20048;-58
2023/05/13 00:11:41;;;;;;;21.92;15.25;;;;;;;14.27;100.00;100867.53;8322246;28;20132;-58
2023/05/13 00:15:42;;;;;;;18.85;13.93;;;;;;;14.49;100.00;100869.78;8316366;28;20385;-58
2023/05/13 00:19:43;;;;;;;19.02;14.63;;;;;;;14.54;100.00;100872.88;8322468;28;20523;-58
2023/05/13 00:23:43;;;;;;;23.80;15.20;;;;;;;14.56;100.00;100876.31;8322706;28;20044;-58
2023/05/13 00:27:43;;;;;;;17.35;13.85;;;;;;;14.48;100.00;100878.97;8322871;28;20037;-58
2023/05/13 00:31:44;;;;;;;19.27;15.57;;;;;;;14.20;100.00;100879.16;8322719;28;20504;-58
2023/05/13 00:35:45;;;;;;;21.80;14.27;;;;;;;14.29;100.00;100884.56;8321934;28;20462;-57
2023/05/13 00:39:45;;;;;;;19.48;14.52;;;;;;;14.22;100.00;100883.47;8323108;28;20046;-58
2023/05/13 00:43:46;;;;;;;17.90;13.27;;;;;;;14.18;100.00;100876.59;8318250;28;20044;-58
2023/05/13 00:47:47;;;;;;;18.42;14.07;;;;;;;14.17;100.00;100872.19;8326188;28;20041;-58
2023/05/13 00:51:49;;;;;;;18.85;13.30;;;;;;;14.10;100.00;100873.81;8322255;28;20034;-58
2023/05/13 00:55:49;;;;;;;16.77;12.38;;;;;;;13.98;100.00;100869.59;8322389;28;20483;-58
2023/05/13 00:59:50;;;;;;;21.42;13.80;;;;;;;13.62;100.00;100871.41;8325914;28;20060;-57
2023/05/13 01:08:36;;;;;;;25.67;15.70;;;;;;;13.36;100.00;100866.84;8319040;28;20488;-57
2023/05/13 01:12:42;;;;;;;23.58;16.73;;;;;;;13.47;100.00;100875.63;8317193;28;20088;-57
2023/05/13 01:16:51;;;;;;;26.60;16.45;;;;;;;13.65;100.00;100868.41;8301072;28;20042;-57
2023/05/13 01:20:53;;;;;;;20.30;14.57;;;;;;;13.52;100.00;100864.31;8285613;28;20085;-57
2023/05/13 01:24:54;;;;;;;24.88;15.75;;;;;;;13.33;100.00;100862.53;8285914;28;20065;-57
2023/05/13 01:28:55;;;;;;;21.80;15.98;;;;;;;13.51;100.00;100866.16;8284926;28;20045;-57
2023/05/13 01:32:57;;;;;;;19.52;15.18;;;;;;;13.41;100.00;100869.94;8284682;28;20034;-57
2023/05/13 01:36:58;;;;;;;22.88;15.65;;;;;;;13.07;100.00;100872.38;8285378;28;20125;-57
2023/05/13 01:41:01;;;;;;;35.75;17.23;;;;;;;13.09;100.00;100866.78;8284273;28;20127;-57
2023/05/13 01:45:04;;;;;;;27.42;17.55;;;;;;;13.10;100.00;100860.34;8284065;28;20121;-57
2023/05/13 01:49:06;;;;;;;28.67;16.15;;;;;;;13.39;100.00;100882.81;8285753;28;20042;-57
2023/05/13 01:53:08;;;;;;;29.13;17.50;;;;;;;13.15;100.00;100880.59;8284603;28;20052;-56
2023/05/13 01:57:09;;;;;;;23.88;16.77;;;;;;;13.12;100.00;100886.34;8285506;28;20088;-58
2023/05/13 02:01:10;;;;;;;32.45;19.65;;;;;;;13.20;100.00;100882.88;8283253;28;20121;-58
2023/05/13 02:05:10;;;;;;;32.05;18.95;;;;;;;13.37;100.00;100880.25;8283770;28;20117;-60
2023/05/13 02:09:12;;;;;;;35.47;21.85;;;;;;;13.49;100.00;100879.06;8297149;28;20578;-61
2023/05/13 02:13:13;;;;;;;33.47;21.67;;;;;;;13.55;100.00;100872.16;8317107;28;20562;-61
2023/05/13 02:17:14;;;;;;;30.95;20.25;;;;;;;13.47;100.00;100872.06;8277789;28;20489;-60
2023/05/13 02:21:16;;;;;;;28.80;19.10;;;;;;;13.42;100.00;100877.09;8262963;28;20443;-60
2023/05/13 02:25:17;;;;;;;32.95;18.88;;;;;;;12.87;100.00;100875.25;8262093;28;20053;-60
2023/05/13 02:29:17;;;;;;;31.95;20.52;;;;;;;12.82;100.00;100883.84;8261818;28;20080;-60
2023/05/13 02:33:18;;;;;;;28.08;19.10;;;;;;;12.85;100.00;100877.25;8261613;28;20053;-57
2023/05/13 02:37:18;;;;;;;31.42;20.00;;;;;;;12.73;100.00;100883.84;8262352;28;20049;-59
2023/05/13 02:41:28;;;;;;;27.77;19.00;;;;;;;12.79;100.00;100881.41;8262237;28;20460;-59
2023/05/13 02:45:29;;;;;;;27.73;18.17;;;;;;;12.74;100.00;100875.56;8261731;28;20061;-60
2023/05/13 02:49:30;;;;;;;24.70;17.38;;;;;;;12.72;100.00;100880.25;8261445;28;20045;-59
2023/05/13 02:53:31;;;;;;;27.50;19.20;;;;;;;12.85;100.00;100882.69;8261823;28;20049;-59
2023/05/13 02:57:37;;;;;;;26.30;19.40;;;;;;;12.94;100.00;100887.22;8262226;28;20038;-59
2023/05/13 03:01:38;;;;;;;30.00;18.98;;;;;;;12.80;100.00;100876.81;8261873;28;20058;-59
2023/05/13 03:05:38;;;;;;;29.23;20.52;;;;;;;12.64;100.00;100876.56;8262239;28;20046;-60
2023/05/13 03:09:41;;;;;;;32.08;20.45;;;;;;;12.52;100.00;100864.16;8277421;28;20038;-60
2023/05/13 03:13:41;;;;;;;43.05;24.48;;;;;;;12.53;100.00;100865.91;8293491;28;20496;-60
2023/05/13 03:17:43;;;;;;;38.30;24.40;;;;;;;12.66;100.00;100863.72;8292518;28;20455;-61
2023/05/13 03:21:44;;;;;;;41.58;26.15;;;;;;;12.57;100.00;100864.59;8280741;28;20047;-59
2023/05/13 03:25:48;;;;;;;35.90;24.20;;;;;;;12.54;100.00;100864.88;8260712;28;20489;-60
2023/05/13 03:29:48;;;;;;;42.22;26.35;;;;;;;12.38;100.00;100861.91;8259706;28;20046;-60
2023/05/13 03:33:49;;;;;;;43.40;27.67;;;;;;;11.96;100.00;100866.75;8261274;28;20052;-59
2023/05/13 03:37:50;;;;;;;46.50;28.58;;;;;;;11.83;100.00;100864.28;8261061;28;20041;-59
2023/05/13 03:41:51;;;;;;;50.95;30.60;;;;;;;11.85;100.00;100858.75;8259643;28;20417;-59
2023/05/13 03:45:52;;;;;;;49.22;29.98;;;;;;;11.80;100.00;100875.41;8260707;28;20038;-58
2023/05/13 03:49:55;;;;;;;50.92;31.58;;;;;;;11.72;100.00;100867.13;8260408;28;20528;-59
2023/05/13 03:53:55;;;;;;;53.35;30.63;;;;;;;11.85;100.00;100867.72;8259752;28;20424;-58
2023/05/13 03:57:57;;;;;;;50.40;30.92;;;;;;;11.77;100.00;100878.41;8256463;28;20052;-58
2023/05/13 04:01:57;;;;;;;50.20;32.13;;;;;;;11.83;100.00;100875.13;8237787;28;20050;-59
2023/05/13 04:05:58;;;;;;;58.47;33.88;;;;;;;11.90;100.00;100884.41;8227951;28;20039;-58
2023/05/13 04:09:58;;;;;;;50.30;33.83;;;;;;;12.08;100.00;100886.44;8264412;28;20076;-57
2023/05/13 04:13:59;;;;;;;52.92;32.65;;;;;;;12.20;100.00;100893.44;8291942;28;20041;-57
2023/05/13 04:17:59;;;;;;;52.70;32.35;;;;;;;12.41;100.00;100888.75;8292047;28;20042;-57
2023/05/13 04:22:01;;;;;;;40.33;29.10;;;;;;;12.42;100.00;100887.72;8278628;28;20416;-57
2023/05/13 04:26:02;;;;;;;42.30;27.48;;;;;;;12.31;100.00;100887.84;8259680;28;20057;-57
2023/05/13 04:30:03;;;;;;;47.30;27.65;;;;;;;12.14;100.00;100889.41;8257888;28;20046;-57
2023/05/13 04:34:06;;;;;;;44.10;30.55;;;;;;;12.20;100.00;100878.00;8258945;28;20035;-57
2023/05/13 04:38:08;;;;;;;47.63;33.58;;;;;;;12.38;100.00;100872.75;8259154;28;20034;-57
2023/05/13 04:42:09;;;;;;;53.92;34.15;;;;;;;12.71;100.00;100891.25;8257326;28;20052;-57
2023/05/13 04:46:09;;;;;;;54.58;32.90;;;;;;;12.89;100.00;100884.09;8258521;28;20513;-57
2023/05/13 04:50:10;;;;;;;49.65;32.88;;;;;;;12.95;100.00;100897.06;8258192;28;20042;-57
2023/05/13 04:54:10;;;;;;;50.03;33.10;;;;;;;13.03;100.00;100894.53;8257907;28;20045;-57
2023/05/13 04:58:11;;;;;;;55.20;32.97;;;;;;;13.05;100.00;100904.22;8258082;28;20104;-58
2023/05/13 05:02:12;;;;;;;53.42;32.80;;;;;;;13.12;100.00;100896.34;8258434;28;20038;-57
2023/05/13 05:06:13;;;;;;;49.58;32.80;;;;;;;13.31;100.00;100901.72;8258229;28;20037;-59
2023/05/13 05:10:14;;;;;;;52.58;32.45;;;;;;;13.39;100.00;100910.81;8278886;28;20056;-59
2023/05/13 05:14:20;;;;;;;52.75;33.53;;;;;;;13.49;100.00;100905.38;8270859;28;20516;-59
2023/05/13 05:18:22;;;;;;;49.70;31.90;;;;;;;13.87;100.00;100907.88;8258217;28;20042;-59
2023/05/13 05:22:25;;;;;;;46.92;30.05;;;;;;;14.42;100.00;100912.22;8252837;28;20038;-59
2023/05/13 05:26:26;;;;;;;39.20;27.25;;;;;;;14.74;100.00;100912.53;8254544;28;20046;-60
2023/05/13 05:30:27;;;;;;;33.97;25.95;;;;;;;14.91;100.00;100908.91;8248310;28;20146;-61
2023/05/13 05:34:36;;;;;;;38.28;26.70;;;;;;;15.12;100.00;100895.78;8255194;28;20069;-60
2023/05/13 05:38:36;;;;;;;32.90;24.17;;;;;;;15.25;100.00;100900.81;8256366;28;20504;-61
2023/05/13 05:42:38;;;;;;;39.65;26.67;;;;;;;15.65;100.00;100904.63;8255333;28;20090;-61
2023/05/13 05:46:38;;;;;;;32.67;23.08;;;;;;;15.73;100.00;100907.41;8253679;28;20050;-61
2023/05/13 05:50:41;;;;;;;35.88;23.65;;;;;;;16.02;100.00;100915.19;8249306;28;20100;-60
2023/05/13 05:54:44;;;;;;;35.60;22.60;;;;;;;15.88;99.05;100921.25;8251051;28;20497;-60
2023/05/13 05:58:45;;;;;;;36.50;23.38;;;;;;;15.83;99.05;100939.13;8260844;28;20416;-60
2023/05/13 06:02:47;;;;;;;29.50;21.73;;;;;;;16.08;94.81;100943.66;8263299;28;20042;-59
2023/05/13 06:06:48;;;;;;;28.33;20.67;;;;;;;16.04;92.51;100942.28;8254175;28;20592;-60
2023/05/13 06:10:49;;;;;;;31.73;20.30;;;;;;;16.29;93.24;100942.19;8281307;28;20415;-59
2023/05/13 06:14:50;;;;;;;28.23;20.75;;;;;;;16.23;91.90;100942.00;8260856;28;20035;-60
2023/05/13 06:18:50;;;;;;;29.20;20.17;;;;;;;16.29;91.44;100935.88;8259746;28;20492;-60
2023/05/13 06:22:51;;;;;;;28.85;19.08;;;;;;;16.44;90.24;100935.06;8261585;28;20121;-60
2023/05/13 06:26:51;;;;;;;26.55;19.50;;;;;;;16.55;89.30;100942.94;8245416;28;20069;-60
2023/05/13 06:30:53;;;;;;;26.23;19.00;;;;;;;16.74;90.54;100941.78;8260081;28;20046;-60
2023/05/13 06:34:53;;;;;;;25.90;20.35;;;;;;;17.27;90.17;100939.34;8257858;28;20434;-60
2023/05/13 06:38:54;;;;;;;31.77;19.58;;;;;;;17.87;88.44;100947.94;8248010;28;20039;-59
2023/05/13 06:42:56;;;;;;;27.58;19.42;;;;;;;17.65;88.50;100960.47;8231016;28;20053;-59
2023/05/13 06:47:04;;;;;;;31.90;19.95;;;;;;;17.90;87.20;100958.53;8248723;28;20092;-59
2023/05/13 06:51:05;;;;;;;30.48;19.05;;;;;;;18.11;84.97;100962.34;8259522;28;20080;-59
2023/05/13 06:55:05;;;;;;;32.55;19.15;;;;;;;18.43;87.83;100951.28;8258061;28;20038;-59
2023/05/13 06:59:06;;;;;;;23.98;19.10;;;;;;;18.46;83.99;100945.44;8256561;28;20062;-59
2023/05/13 07:03:07;;;;;;;27.33;18.42;;;;;;;18.64;85.13;100948.75;8255666;28;20042;-59
2023/05/13 07:07:07;;;;;;;27.33;17.67;;;;;;;18.28;82.26;100961.25;8256602;28;20286;-59
2023/05/13 07:11:08;;;;;;;26.35;17.75;;;;;;;18.51;82.40;100953.94;8286848;28;20520;-56
2023/05/13 07:15:09;;;;;;;26.42;17.83;;;;;;;18.62;80.45;100964.50;8258955;28;20046;-59
2023/05/13 07:19:09;;;;;;;22.27;16.17;;;;;;;19.08;79.33;100963.47;8259684;28;20052;-59
2023/05/13 07:23:10;;;;;;;25.52;16.20;;;;;;;18.91;79.15;100958.31;8256331;28;20038;-59
2023/05/13 07:27:10;;;;;;;25.38;16.30;;;;;;;18.72;78.24;100956.88;8252447;28;20042;-59
2023/05/13 07:31:10;;;;;;;25.27;16.85;;;;;;;19.00;83.87;100965.44;8248386;28;20038;-59
2023/05/13 07:35:11;;;;;;;21.77;14.02;;;;;;;19.27;79.22;100962.09;8258639;28;20504;-59
2023/05/13 07:39:12;;;;;;;18.63;15.10;;;;;;;19.21;77.86;100968.31;8259109;28;20034;-59
2023/05/13 07:43:22;;;;;;;24.85;15.60;;;;;;;19.27;78.94;100962.97;8257597;28;20038;-59
2023/05/13 07:47:23;;;;;;;23.80;13.98;;;;;;;19.42;75.54;100972.09;8254741;28;20514;-59
2023/05/13 07:51:23;;;;;;;27.15;15.32;;;;;;;19.82;76.40;100964.47;8249600;28;20454;-59
2023/05/13 07:55:24;;;;;;;20.95;14.30;;;;;;;19.48;76.03;100963.09;8223800;28;20035;-59
2023/05/13 07:59:24;;;;;;;23.60;15.07;;;;;;;19.91;77.20;100955.91;8229493;28;20046;-59
2023/05/13 08:03:25;;;;;;;26.80;14.77;;;;;;;20.00;78.25;100959.44;8243293;28;20510;-59
2023/05/13 08:07:25;;;;;;;18.20;13.90;;;;;;;20.74;76.23;100964.59;8240591;28;20682;-59
2023/05/13 08:11:26;;;;;;;27.95;15.50;;;;;;;21.00;76.74;100959.38;8251541;28;20501;-59
2023/05/13 08:15:27;;;;;;;19.10;14.32;;;;;;;21.04;75.07;100949.69;8229513;28;20039;-60
2023/05/13 08:19:27;;;;;;;22.63;14.48;;;;;;;21.23;73.59;100951.78;8228445;28;20501;-60
2023/05/13 08:23:28;;;;;;;21.98;15.00;;;;;;;21.11;73.15;100956.13;8239396;28;20034;-59
2023/05/13 08:27:28;;;;;;;25.67;15.75;;;;;;;21.10;75.62;100959.91;8248549;28;20050;-59
2023/05/13 08:31:30;;;;;;;20.80;14.70;;;;;;;20.92;75.48;100956.75;8249836;28;20054;-59
2023/05/13 08:35:31;;;;;;;23.90;16.02;;;;;;;20.53;77.89;100959.09;8250707;28;20038;-59
2023/05/13 08:39:31;;;;;;;25.30;15.15;;;;;;;20.82;75.42;100956.22;8239249;28;20101;-59
2023/05/13 08:43:33;;;;;;;20.98;14.75;;;;;;;20.39;78.50;100968.19;8218196;28;20132;-59
2023/05/13 08:47:49;;;;;;;26.67;15.93;;;;;;;20.34;76.94;100965.19;8219397;28;20179;-59
2023/05/13 08:51:50;;;;;;;24.40;14.70;;;;;;;20.87;77.29;100959.25;8244055;28;20101;-60
2023/05/13 08:55:51;;;;;;;19.55;14.68;;;;;;;20.68;77.41;100954.38;8251758;28;20307;-60
2023/05/13 08:59:51;;;;;;;24.88;15.52;;;;;;;20.75;77.68;100956.16;8250702;28;20042;-61
2023/05/13 09:03:59;;;;;;;25.10;15.68;;;;;;;20.54;78.40;100963.53;8235405;28;20066;-61
2023/05/13 09:08:05;;;;;;;30.17;15.88;;;;;;;20.69;79.61;100972.56;8247100;28;20516;-61
2023/05/13 09:12:06;;;;;;;25.80;15.48;;;;;;;20.98;76.75;100967.84;8252725;28;20523;-61
2023/05/13 09:16:07;;;;;;;28.70;15.55;;;;;;;21.77;77.82;100965.78;8245119;28;20429;-61
2023/05/13 09:20:09;;;;;;;23.30;14.80;;;;;;;21.82;73.76;100972.38;8248109;28;20045;-61
2023/05/13 09:24:12;;;;;;;23.40;15.05;;;;;;;21.86;74.30;100972.81;8249852;28;20061;-61
2023/05/13 09:28:14;;;;;;;25.80;14.75;;;;;;;21.81;76.98;100964.31;8253515;28;20434;-62
2023/05/13 09:32:14;;;;;;;23.92;13.80;;;;;;;21.94;75.79;100959.72;8249594;28;20509;-61
2023/05/13 09:36:15;;;;;;;24.00;14.18;;;;;;;22.29;76.45;100947.59;8254978;28;20436;-61
2023/05/13 09:40:16;;;;;;;22.42;14.32;;;;;;;22.12;75.85;100951.78;8253218;28;20038;-61
2023/05/13 09:44:17;;;;;;;22.63;13.20;;;;;;;21.78;70.36;100948.19;8247626;28;20054;-61
2023/05/13 09:48:18;;;;;;;20.35;12.45;;;;;;;22.04;65.91;100949.19;8244315;28;20062;-61
2023/05/13 09:52:21;;;;;;;23.38;12.35;;;;;;;23.21;62.69;100944.00;8251656;28;20630;-61
2023/05/13 09:56:22;;;;;;;19.15;11.02;;;;;;;24.18;62.85;100946.88;8253529;28;20039;-58
2023/05/13 10:00:23;;;;;;;17.10;12.10;;;;;;;24.92;59.48;100943.31;8253755;28;20042;-58
2023/05/13 10:04:23;;;;;;;16.80;11.23;;;;;;;26.13;57.66;100939.88;8251176;28;20049;-59
2023/05/13 10:08:26;;;;;;;17.23;10.38;;;;;;;27.30;57.06;100936.53;8256871;28;20042;-56
2023/05/13 10:12:30;;;;;;;14.45;9.60;;;;;;;27.17;54.99;100925.63;8255333;28;20058;-57
2023/05/13 10:16:32;;;;;;;16.02;9.38;;;;;;;27.38;53.09;100927.84;8253778;28;20454;-58
2023/05/13 10:20:32;;;;;;;14.32;10.55;;;;;;;26.98;53.64;100926.78;8253476;28;20507;-56
2023/05/13 10:24:34;;;;;;;15.68;10.57;;;;;;;27.34;55.72;100918.28;8253576;28;20358;-56
2023/05/13 10:28:35;;;;;;;19.58;10.68;;;;;;;28.32;54.26;100920.03;8244531;28;20052;-56
2023/05/13 10:32:38;;;;;;;13.30;10.38;;;;;;;29.15;54.35;100921.16;8245917;28;20456;-56
2023/05/13 10:37:00;;;;;;;12.10;7.60;;;;;;;27.94;50.39;100912.28;8249724;28;20140;-56
2023/05/13 10:41:29;;;;;;;19.88;11.07;;;;;;;28.81;54.78;100913.81;8248661;28;20034;-56
2023/05/13 10:45:32;;;;;;;11.40;8.90;;;;;;;29.01;50.59;100908.63;8236209;28;20065;-56
2023/05/13 10:49:33;;;;;;;16.65;9.80;;;;;;;29.42;52.34;100905.44;8253437;28;20073;-56
2023/05/13 10:53:41;;;;;;;14.38;9.82;;;;;;;28.61;51.42;100896.75;8245924;28;20042;-57
2023/05/13 10:58:03;;;;;;;10.32;7.60;;;;;;;28.72;46.31;100898.59;8240906;28;20168;-56
2023/05/13 11:02:23;;;;;;;12.65;7.53;;;;;;;28.14;49.17;100892.38;8236437;28;20038;-56
2023/05/13 11:06:41;;;;;;;12.93;7.65;;;;;;;28.22;47.53;100897.59;8249159;28;20062;-56
2023/05/13 11:10:41;;;;;;;11.70;8.50;;;;;;;27.89;49.38;100886.28;8227797;28;20047;-59
2023/05/13 11:14:43;;;;;;;9.45;7.43;;;;;;;29.48;48.97;100887.72;8237826;28;20528;-59
2023/05/13 11:18:44;;;;;;;12.27;8.20;;;;;;;29.66;49.74;100876.31;8240028;28;20042;-58
2023/05/13 11:22:45;;;;;;;11.00;7.53;;;;;;;27.93;51.19;100870.84;8251737;28;20386;-59
2023/05/13 11:26:50;;;;;;;13.07;7.07;;;;;;;25.87;56.77;100868.09;8252733;28;20560;-58
2023/05/13 11:30:54;;;;;;;9.32;5.88;;;;;;;24.41;51.84;100864.25;8247784;28;20352;-59
2023/05/13 11:34:55;;;;;;;6.55;5.82;;;;;;;24.15;52.48;100859.72;8251467;28;20040;-59
2023/05/13 11:39:05;;;;;;;8.63;5.63;;;;;;;24.94;51.27;100865.59;8250276;28;20488;-59
2023/05/13 11:43:07;;;;;;;12.27;6.40;;;;;;;25.45;52.19;100877.31;8249351;28;20096;-59
2023/05/13 11:47:08;;;;;;;9.63;6.35;;;;;;;24.95;54.70;100872.84;8247827;28;20044;-59
2023/05/13 11:51:08;;;;;;;9.73;6.70;;;;;;;25.06;53.97;100861.03;8249954;28;20068;-59
2023/05/13 11:55:09;;;;;;;9.02;6.20;;;;;;;24.34;57.02;100857.94;8251023;28;20413;-59
2023/05/13 11:59:13;;;;;;;11.38;6.20;;;;;;;23.47;56.63;100881.59;8252170;28;20046;-60
2023/05/13 12:03:14;;;;;;;8.25;3.17;;;;;;;22.01;55.38;100944.09;8252558;28;20129;-60
2023/05/13 12:07:19;;;;;;;5.93;3.05;;;;;;;19.88;59.94;100960.97;8252790;28;20527;-61
2023/05/13 12:11:19;;;;;;;5.50;3.08;;;;;;;18.73;64.65;100968.72;8282485;28;20097;-60
2023/05/13 12:15:21;;;;;;;3.88;3.08;;;;;;;18.19;69.47;100954.13;8274551;28;20038;-60
2023/05/13 12:19:21;;;;;;;3.97;3.33;;;;;;;17.56;76.26;100956.06;8234569;28;20047;-59
2023/05/13 12:23:21;;;;;;;7.25;2.83;;;;;;;17.28;73.57;100928.25;8244767;28;20537;-59
2023/05/13 12:27:22;;;;;;;5.05;3.20;;;;;;;17.29;74.83;100940.88;8248548;28;20049;-59
2023/05/13 12:31:23;;;;;;;5.90;2.72;;;;;;;17.79;69.55;100906.94;8251028;28;20035;-59
2023/05/13 12:35:23;;;;;;;4.32;2.50;;;;;;;18.09;66.77;100937.06;8246665;28;20068;-59
2023/05/13 12:39:23;;;;;;;6.60;2.53;;;;;;;18.17;68.43;100936.19;8247378;28;20046;-59
2023/05/13 12:43:24;;;;;;;6.03;2.25;;;;;;;18.37;65.92;100924.63;8250571;28;20084;-59
2023/05/13 12:47:24;;;;;;;3.78;2.42;;;;;;;18.67;65.77;100918.22;8252009;28;20570;-60
2023/05/13 12:51:25;;;;;;;6.85;2.33;;;;;;;18.98;65.25;100913.53;8248371;28;20039;-60
2023/05/13 12:55:26;;;;;;;3.63;2.70;;;;;;;19.14;64.96;100915.25;8246254;28;20054;-60
2023/05/13 12:59:28;;;;;;;5.78;2.50;;;;;;;19.89;64.13;100918.75;8250417;28;20180;-61
2023/05/13 13:03:28;;;;;;;5.13;3.00;;;;;;;20.36;60.81;100910.91;8247515;28;20049;-60
2023/05/13 13:07:29;;;;;;;4.03;2.72;;;;;;;20.64;59.31;100909.09;8251767;28;20134;-61
2023/05/13 13:11:29;;;;;;;4.13;2.67;;;;;;;20.27;59.85;100901.06;8277793;28;20066;-60
2023/05/13 13:15:30;;;;;;;4.90;3.03;;;;;;;20.10;62.43;100907.81;8251842;28;20428;-59
2023/05/13 13:19:30;;;;;;;2.85;2.60;;;;;;;19.84;65.50;100894.63;8251486;28;20039;-60
2023/05/13 13:23:31;;;;;;;2.58;2.38;;;;;;;19.79;65.68;100896.25;8251900;28;20046;-59
2023/05/13 13:27:33;;;;;;;3.88;2.75;;;;;;;20.13;63.46;100891.00;8250228;28;20162;-59
2023/05/13 13:31:34;;;;;;;2.85;2.30;;;;;;;20.72;64.03;100879.59;8249626;28;20046;-60
2023/05/13 13:35:34;;;;;;;3.15;2.15;;;;;;;21.15;57.45;100877.66;8245270;28;20570;-59
2023/05/13 13:39:34;;;;;;;3.83;2.30;;;;;;;21.40;55.45;100878.91;8249947;28;20049;-59
2023/05/13 13:43:35;;;;;;;10.40;2.50;;;;;;;21.27;57.58;100881.56;8249829;28;20042;-59
2023/05/13 13:47:36;;;;;;;2.38;2.15;;;;;;;21.23;56.25;100874.78;8250333;28;20048;-59
2023/05/13 13:51:36;;;;;;;3.08;2.10;;;;;;;21.35;59.75;100890.50;8248348;28;20524;-59
2023/05/13 13:55:37;;;;;;;3.97;2.30;;;;;;;21.44;56.92;100899.47;8250356;28;20062;-59
2023/05/13 13:59:37;;;;;;;3.25;2.47;;;;;;;21.80;56.12;100875.34;8246686;28;20046;-60
2023/05/13 14:03:38;;;;;;;4.50;2.20;;;;;;;21.47;55.48;100878.94;8250468;28;20038;-60
2023/05/13 14:07:38;;;;;;;3.13;2.20;;;;;;;21.46;54.53;100872.59;8247952;28;20042;-59
2023/05/13 14:11:39;;;;;;;4.45;2.70;;;;;;;21.51;55.78;100863.72;8280176;28;20259;-59
2023/05/13 14:15:39;;;;;;;4.18;2.10;;;;;;;21.75;54.92;100866.88;8288052;28;20092;-60
2023/05/13 14:19:39;;;;;;;3.85;2.17;;;;;;;21.65;56.07;100874.59;8286279;28;20520;-60
2023/05/13 14:23:40;;;;;;;5.97;2.13;;;;;;;21.73;53.60;100874.44;8261154;28;20469;-60
2023/05/13 14:27:41;;;;;;;4.55;2.28;;;;;;;21.61;56.04;100859.56;8251738;28;20046;-60
2023/05/13 14:31:41;;;;;;;2.55;2.30;;;;;;;21.78;56.87;100847.19;8253784;28;20112;-60
2023/05/13 14:35:42;;;;;;;4.47;2.15;;;;;;;21.86;56.76;100855.25;8256363;28;20081;-61
2023/05/13 14:39:42;;;;;;;5.25;2.20;;;;;;;22.01;56.92;100850.44;8256546;28;20038;-61
2023/05/13 14:43:43;;;;;;;3.50;2.40;;;;;;;22.15;54.20;100851.34;8271882;28;20508;-61
2023/05/13 14:47:43;;;;;;;2.30;2.10;;;;;;;22.03;51.84;100851.09;8255536;28;20728;-60
2023/05/13 14:51:44;;;;;;;2.97;2.70;;;;;;;22.02;56.13;100849.38;8255896;28;20130;-60
2023/05/13 14:55:44;;;;;;;4.97;2.08;;;;;;;22.05;52.97;100857.22;8257353;28;20077;-60
2023/05/13 14:59:45;;;;;;;3.20;2.13;;;;;;;21.96;53.36;100890.69;8256951;28;20136;-58
2023/05/13 15:03:45;;;;;;;3.65;2.40;;;;;;;22.15;54.81;100901.78;8256863;28;20045;-59
2023/05/13 15:07:46;;;;;;;4.78;2.50;;;;;;;21.93;58.70;100891.94;8252727;28;20054;-60
2023/05/13 15:11:46;;;;;;;2.60;2.40;;;;;;;21.84;59.89;100876.66;8288572;28;20045;-60
2023/05/13 15:15:47;;;;;;;8.07;2.53;;;;;;;21.58;56.45;100870.97;8288576;28;20050;-60
2023/05/13 15:19:47;;;;;;;2.90;2.60;;;;;;;21.45;57.32;100859.88;8287834;28;20038;-60
2023/05/13 15:23:48;;;;;;;4.78;2.47;;;;;;;21.21;57.51;100866.72;8252848;28;20456;-60
2023/05/13 15:27:50;;;;;;;2.58;2.38;;;;;;;20.78;57.96;100850.47;8252656;28;20350;-60
2023/05/13 15:31:50;;;;;;;2.70;2.50;;;;;;;20.96;59.91;100839.88;8254238;28;20039;-60
2023/05/13 15:35:51;;;;;;;3.58;3.25;;;;;;;20.83;60.44;100848.00;8255968;28;20072;-60
2023/05/13 15:39:52;;;;;;;6.10;3.28;;;;;;;20.86;61.61;100847.59;8255095;28;20046;-60
2023/05/13 15:43:53;;;;;;;5.00;2.70;;;;;;;21.26;60.89;100861.44;8250554;28;20034;-60
2023/05/13 15:47:53;;;;;;;3.92;2.30;;;;;;;21.24;60.88;100858.06;8221761;28;20038;-61
2023/05/13 15:51:54;;;;;;;5.18;2.97;;;;;;;21.47;60.28;100866.03;8231012;28;20042;-61
2023/05/13 15:55:55;;;;;;;3.15;2.22;;;;;;;21.16;60.76;100871.09;8252104;28;20035;-59
2023/05/13 15:59:55;;;;;;;8.40;2.83;;;;;;;20.78;61.33;100877.97;8249367;28;20480;-60
2023/05/13 16:03:56;;;;;;;3.80;2.85;;;;;;;20.80;59.56;100884.13;8247931;28;20038;-60
2023/05/13 16:07:56;;;;;;;6.07;2.63;;;;;;;21.10;60.79;100885.66;8251989;28;20089;-60
2023/05/13 16:11:56;;;;;;;4.43;2.60;;;;;;;21.15;58.86;100881.28;8285105;28;20292;-60
2023/05/13 16:15:57;;;;;;;3.63;2.40;;;;;;;21.12;58.98;100875.31;8284895;28;20575;-60
2023/05/13 16:19:58;;;;;;;2.63;2.13;;;;;;;20.92;58.04;100868.78;8285403;28;20125;-60
2023/05/13 16:23:59;;;;;;;3.97;2.28;;;;;;;21.01;58.51;100878.59;8255616;28;20034;-60
2023/05/13 16:27:59;;;;;;;3.47;2.67;;;;;;;20.97;56.88;100871.81;8251620;28;20054;-60
2023/05/13 16:32:00;;;;;;;2.55;2.35;;;;;;;20.96;55.82;100870.13;8253454;28;20046;-60
2023/05/13 16:36:00;;;;;;;4.38;2.58;;;;;;;20.84;55.65;100858.78;8252596;28;20503;-60
2023/05/13 16:40:01;;;;;;;3.33;2.55;;;;;;;20.78;55.96;100869.72;8253575;28;20034;-60
2023/05/13 16:44:01;;;;;;;4.25;2.60;;;;;;;20.69;56.40;100862.66;8252981;28;20038;-60
2023/05/13 16:48:01;;;;;;;2.75;2.13;;;;;;;20.70;55.68;100843.22;8253129;28;20039;-60
2023/05/13 16:52:03;;;;;;;2.65;2.20;;;;;;;20.73;55.97;100847.44;8250263;28;20044;-60
2023/05/13 16:56:04;;;;;;;5.03;2.47;;;;;;;20.71;56.31;100844.91;8250962;28;20042;-60
2023/05/13 17:00:06;;;;;;;3.78;2.08;;;;;;;20.78;54.59;100831.22;8252805;28;20038;-61
2023/05/13 17:04:06;;;;;;;2.67;2.47;;;;;;;20.81;54.95;100833.59;8251607;28;20035;-61
2023/05/13 17:08:07;;;;;;;4.63;2.50;;;;;;;20.74;56.88;100824.44;8253847;28;20192;-61
2023/05/13 17:12:07;;;;;;;3.70;2.10;;;;;;;20.52;58.02;100828.25;8257767;28;20444;-61
2023/05/13 17:16:08;;;;;;;4.60;2.30;;;;;;;20.42;58.94;100824.97;8252733;28;20513;-61
2023/05/13 17:20:10;;;;;;;5.65;2.75;;;;;;;19.98;62.58;100827.00;8253570;28;20146;-59
2023/05/13 17:24:10;;;;;;;2.65;2.35;;;;;;;20.10;57.86;100817.22;8253137;28;20056;-58
2023/05/13 17:28:10;;;;;;;2.80;2.30;;;;;;;20.25;59.03;100826.28;8249380;28;20046;-59
2023/05/13 17:32:11;;;;;;;6.30;2.70;;;;;;;20.08;60.78;100827.53;8250717;28;20041;-59
2023/05/13 17:36:11;;;;;;;5.55;2.90;;;;;;;19.92;63.01;100836.03;8250541;28;20045;-59
2023/05/13 17:40:12;;;;;;;4.65;3.47;;;;;;;19.55;65.14;100836.19;8244557;28;20038;-59
2023/05/13 17:44:13;;;;;;;5.30;3.63;;;;;;;19.56;64.75;100836.00;8219970;28;20039;-59
2023/05/13 17:48:14;;;;;;;5.03;3.90;;;;;;;19.91;65.82;100834.34;8232305;28;20035;-58
2023/05/13 17:52:14;;;;;;;4.80;3.75;;;;;;;19.35;67.51;100847.72;8255952;28;20113;-58
2023/05/13 17:56:15;;;;;;;6.25;3.80;;;;;;;18.96;70.50;100852.56;8258752;28;20125;-57
2023/05/13 18:00:16;;;;;;;4.65;3.83;;;;;;;18.74;71.38;100842.50;8259177;28;20107;-58
2023/05/13 18:04:16;;;;;;;5.78;4.55;;;;;;;18.78;72.83;100841.09;8255429;28;20053;-59
2023/05/13 18:08:17;;;;;;;4.95;4.10;;;;;;;18.72;73.54;100843.72;8256647;28;20054;-58
2023/05/13 18:12:17;;;;;;;6.40;4.32;;;;;;;18.65;74.12;100843.63;8256496;28;20559;-58
2023/05/13 18:16:18;;;;;;;5.22;3.97;;;;;;;18.58;75.50;100848.16;8255561;28;20034;-58
2023/05/13 18:20:18;;;;;;;5.50;3.67;;;;;;;18.43;76.54;100847.25;8255712;28;20057;-58
2023/05/13 18:24:19;;;;;;;4.28;3.88;;;;;;;18.23;77.05;100840.50;8265106;28;20085;-58
2023/05/13 18:28:19;;;;;;;6.90;3.95;;;;;;;18.13;77.17;100839.88;8253264;28;20417;-58
2023/05/13 18:32:20;;;;;;;9.00;4.47;;;;;;;18.08;77.90;100842.31;8225168;28;20070;-58